Delta Virtual Airport Information Service

Trondheim Vaernes Airport

ICAO: ENVA Country: Norway
Latitude: 63.4576 Longitude: 10.9242
Latest Arrival : DAC6996 (LEAL-ENVA) Latest Departure : DAC6996 (ENVA-UTDD)


WX CaptureLIVE
Data provided by noaa.gov | Fetched at 04:29:17

METAR : ENVA 300850Z 15015KT CAVOK 15/06 Q1012 RMK WIND 670FT 17020KT

TAF : ENVA 3006/0106 14010KT CAVOK PROB30 TEMPO 3012/3106 17015G25KT


Runway Data for ENVA
Data provided by openaviationdata.com

Runway ID Mag Var Hdg Length Elevation Surface ILS Freq ILS Id ILS Slope
9 2 88° 9030 ft 56 ft Asphalt 110.3 TO 3
27 2 268° 9030 ft 56 ft Asphalt 109.9 TD 3

Trondheim Vaernes Airport, Norway
Use only for reference purposes



Not for navigational purposes.